Udo Maru — JM6522 — position and weather

sailwx.info

Track history (hours):
 
Tides and Currents Weather Stations Pressure Air Temp Water Temp Dewpoint Dewpoint Depression Visibility Wind Speed Wind Dir Waves Ship Positions

Udo Maru

Last reported at 2018-Jun-17 11:44 UTC. Time now 2018-Jun-21 19:57 UTC.
Position N 34°25' E 134°19'.

Length 87 m; draft 5 m.

Type: Cargo ship. MMSI: 431600499.

Date/timePositionNaut miles runAvg speedWind from/ knotsBaromVisibWave heightAir tempDewpointWater temp
2018-Jun-17 11:44N 34°25' E 134°19'312.6
2018-Jun-17 11:30N 34°26' E 134°22'611.9
2018-Jun-17 11:00N 34°30' E 134°27'611.6
2018-Jun-17 10:30N 34°34' E 134°33'611.2
2018-Jun-17 10:00N 34°38' E 134°38'6 0.2
2018-Jun-16 08:00N 34°44' E 134°35'  
2018-Jun-10 01:17N 34°35' E 134°13'412.1
2018-Jun-10 01:00N 34°37' E 134°16'1112.4
2018-Jun-10 00:04N 34°42' E 134°28'312.2
2018-Jun-09 23:52N 34°43' E 134°32'512.8
2018-Jun-09 23:27N 34°42' E 134°38'612.5
2018-Jun-09 23:00N 34°41' E 134°45'612.7
2018-Jun-09 22:30N 34°38' E 134°51'712.6
2018-Jun-09 21:58N 34°38' E 134°59'613.3
2018-Jun-09 21:30N 34°36' E 135°07'713.7
2018-Jun-09 21:00N 34°36' E 135°15'713.1
2018-Jun-09 20:30N 34°36' E 135°23'4 0.6
2018-Jun-09 13:25N 34°34' E 135°27'1 2.2
2018-Jun-09 12:58N 34°35' E 135°27'4 9.0
2018-Jun-09 12:30N 34°36' E 135°22'2 3.8
2018-Jun-09 11:58N 34°36' E 135°19'0 0.0
2018-Jun-09 11:28N 34°36' E 135°19'0 0.0
2018-Jun-09 10:58N 34°36' E 135°19'0 0.0
2018-Jun-09 10:28N 34°36' E 135°19'0 0.1
2018-Jun-09 09:49N 34°36' E 135°19'0 0.0
2018-Jun-09 09:22N 34°36' E 135°19'0 0.1
2018-Jun-09 08:55N 34°36' E 135°19'0 0.1
2018-Jun-09 08:28N 34°36' E 135°19'0 0.0
2018-Jun-09 07:58N 34°36' E 135°19'0 0.0
2018-Jun-09 07:28N 34°36' E 135°19'0 0.1
2018-Jun-09 06:52N 34°36' E 135°19'0 0.0
2018-Jun-09 06:28N 34°36' E 135°19'0 0.0
2018-Jun-09 05:58N 34°36' E 135°19'0 0.0
2018-Jun-09 05:28N 34°36' E 135°19'0 0.0
2018-Jun-09 04:58N 34°36' E 135°19'0 0.0
2018-Jun-09 04:28N 34°36' E 135°19'0 0.0
2018-Jun-09 03:58N 34°36' E 135°19'0 0.0
2018-Jun-09 03:28N 34°36' E 135°19'0 0.0
2018-Jun-09 02:52N 34°36' E 135°19'0 0.1
2018-Jun-09 02:25N 34°36' E 135°19'0 0.0
2018-Jun-09 01:58N 34°36' E 135°19'0 0.0
2018-Jun-09 01:28N 34°36' E 135°19'0 0.0
2018-Jun-09 00:52N 34°36' E 135°19'0 0.2
2018-Jun-09 00:30N 34°36' E 135°19'4 8.7
2018-Jun-09 00:00N 34°35' E 135°14'611.3
2018-Jun-08 23:30N 34°35' E 135°07'611.7
2018-Jun-08 23:00N 34°37' E 135°01'711.8
2018-Jun-08 22:23N 34°35' E 134°53'410.9
2018-Jun-08 21:59N 34°33' E 134°47'510.9
2018-Jun-08 21:30N 34°31' E 134°42'611.0
2018-Jun-08 21:00N 34°29' E 134°36'611.3
2018-Jun-08 20:30N 34°27' E 134°29'611.2
2018-Jun-08 19:59N 34°24' E 134°23'  
Track history (hours):
 
Tides and Currents Weather Stations Pressure Air Temp Water Temp Dewpoint Dewpoint Depression Visibility Wind Speed Wind Dir Waves Ship Positions

Udo Maru

Last reported at 2018-Jun-17 11:44 UTC. Time now 2018-Jun-21 19:57 UTC.
Position N 34°25' E 134°19'.

Length 87 m; draft 5 m.

Type: Cargo ship. MMSI: 431600499.

Date/timePositionNaut miles runAvg speedWind from/ knotsBaromVisibWave heightAir tempDewpointWater temp
2018-Jun-17 11:44N 34°25' E 134°19'312.6
2018-Jun-17 11:30N 34°26' E 134°22'611.9
2018-Jun-17 11:00N 34°30' E 134°27'611.6
2018-Jun-17 10:30N 34°34' E 134°33'611.2
2018-Jun-17 10:00N 34°38' E 134°38'6 0.2
2018-Jun-16 08:00N 34°44' E 134°35'  
2018-Jun-10 01:17N 34°35' E 134°13'412.1
2018-Jun-10 01:00N 34°37' E 134°16'1112.4
2018-Jun-10 00:04N 34°42' E 134°28'312.2
2018-Jun-09 23:52N 34°43' E 134°32'512.8
2018-Jun-09 23:27N 34°42' E 134°38'612.5
2018-Jun-09 23:00N 34°41' E 134°45'612.7
2018-Jun-09 22:30N 34°38' E 134°51'712.6
2018-Jun-09 21:58N 34°38' E 134°59'613.3
2018-Jun-09 21:30N 34°36' E 135°07'713.7
2018-Jun-09 21:00N 34°36' E 135°15'713.1
2018-Jun-09 20:30N 34°36' E 135°23'4 0.6
2018-Jun-09 13:25N 34°34' E 135°27'1 2.2
2018-Jun-09 12:58N 34°35' E 135°27'4 9.0
2018-Jun-09 12:30N 34°36' E 135°22'2 3.8
2018-Jun-09 11:58N 34°36' E 135°19'0 0.0
2018-Jun-09 11:28N 34°36' E 135°19'0 0.0
2018-Jun-09 10:58N 34°36' E 135°19'0 0.0
2018-Jun-09 10:28N 34°36' E 135°19'0 0.1
2018-Jun-09 09:49N 34°36' E 135°19'0 0.0
2018-Jun-09 09:22N 34°36' E 135°19'0 0.1
2018-Jun-09 08:55N 34°36' E 135°19'0 0.1
2018-Jun-09 08:28N 34°36' E 135°19'0 0.0
2018-Jun-09 07:58N 34°36' E 135°19'0 0.0
2018-Jun-09 07:28N 34°36' E 135°19'0 0.1
2018-Jun-09 06:52N 34°36' E 135°19'0 0.0
2018-Jun-09 06:28N 34°36' E 135°19'0 0.0
2018-Jun-09 05:58N 34°36' E 135°19'0 0.0
2018-Jun-09 05:28N 34°36' E 135°19'0 0.0
2018-Jun-09 04:58N 34°36' E 135°19'0 0.0
2018-Jun-09 04:28N 34°36' E 135°19'0 0.0
2018-Jun-09 03:58N 34°36' E 135°19'0 0.0
2018-Jun-09 03:28N 34°36' E 135°19'0 0.0
2018-Jun-09 02:52N 34°36' E 135°19'0 0.1
2018-Jun-09 02:25N 34°36' E 135°19'0 0.0
2018-Jun-09 01:58N 34°36' E 135°19'0 0.0
2018-Jun-09 01:28N 34°36' E 135°19'0 0.0
2018-Jun-09 00:52N 34°36' E 135°19'0 0.2
2018-Jun-09 00:30N 34°36' E 135°19'4 8.7
2018-Jun-09 00:00N 34°35' E 135°14'611.3
2018-Jun-08 23:30N 34°35' E 135°07'611.7
2018-Jun-08 23:00N 34°37' E 135°01'711.8
2018-Jun-08 22:23N 34°35' E 134°53'410.9
2018-Jun-08 21:59N 34°33' E 134°47'510.9
2018-Jun-08 21:30N 34°31' E 134°42'611.0
2018-Jun-08 21:00N 34°29' E 134°36'611.3
2018-Jun-08 20:30N 34°27' E 134°29'611.2
2018-Jun-08 19:59N 34°24' E 134°23'  

Dump ship's entire track history